Time;durP1;ratioP1;P1;durP2;ratioP2;P2;SDS_P1;SDS_P2;PMS_P1;PMS_P2;Temp;Humidity;BMP_temperature;BMP_pressure;BME280_temperature;BME280_humidity;BME280_pressure;Samples;Min_cycle;Max_cycle;Signal;HPM_P1;HPM_P2
2023/04/03 00:02:11;;;;;;;61.58;6.32;;;;;;;;;;5071791;28;20209;-65
2023/04/03 00:04:38;;;;;;;61.83;6.72;;;;;;;;;;5071465;28;20235;-68
2023/04/03 00:07:05;;;;;;;61.92;6.30;;;;;;;;;;5071219;28;20212;-68
2023/04/03 00:09:32;;;;;;;60.42;5.85;;;;;;;;;;5071105;28;20559;-67
2023/04/03 00:11:59;;;;;;;60.45;5.60;;;;;;;;;;5071256;28;20202;-68
2023/04/03 00:14:27;;;;;;;62.10;5.90;;;;;;;;;;5071245;28;20430;-67
2023/04/03 00:16:54;;;;;;;61.25;5.60;;;;;;;;;;5071349;28;20206;-67
2023/04/03 00:19:22;;;;;;;60.08;5.28;;;;;;;;;;5070841;28;20665;-68
2023/04/03 00:21:50;;;;;;;60.38;6.43;;;;;;;;;;5071267;28;20202;-68
2023/04/03 00:24:17;;;;;;;61.60;5.53;;;;;;;;;;5071106;28;20224;-69
2023/04/03 00:26:44;;;;;;;60.38;5.88;;;;;;;;;;5071826;28;20229;-67
2023/04/03 00:29:11;;;;;;;59.72;5.70;;;;;;;;;;5074223;28;20228;-68
2023/04/03 00:31:38;;;;;;;61.65;6.22;;;;;;;;;;5074841;28;20577;-67
2023/04/03 00:34:05;;;;;;;60.83;5.50;;;;;;;;;;5074800;28;20202;-68
2023/04/03 00:36:34;;;;;;;62.35;6.03;;;;;;;;;;5074739;28;20197;-67
2023/04/03 00:39:01;;;;;;;59.97;5.90;;;;;;;;;;5074224;28;20221;-68
2023/04/03 00:41:28;;;;;;;60.20;5.65;;;;;;;;;;5074341;28;20212;-68
2023/04/03 00:43:55;;;;;;;59.63;4.70;;;;;;;;;;5074677;28;20569;-68
2023/04/03 00:46:22;;;;;;;60.50;5.70;;;;;;;;;;5074489;28;20236;-68
2023/04/03 00:48:50;;;;;;;60.67;6.00;;;;;;;;;;5073984;28;20747;-69
2023/04/03 00:51:19;;;;;;;65.55;6.15;;;;;;;;;;5074429;28;20213;-67
2023/04/03 00:53:50;;;;;;;61.53;6.15;;;;;;;;;;5074306;28;20201;-67
2023/04/03 00:56:19;;;;;;;60.20;5.93;;;;;;;;;;5074177;28;20205;-67
2023/04/03 00:58:48;;;;;;;60.28;5.40;;;;;;;;;;5073956;28;20235;-68
2023/04/03 01:01:17;;;;;;;62.92;6.05;;;;;;;;;;5074252;28;20209;-68
2023/04/03 01:03:44;;;;;;;62.42;6.57;;;;;;;;;;5074565;28;20205;-68
2023/04/03 01:06:12;;;;;;;61.42;5.88;;;;;;;;;;5074013;28;20599;-67
2023/04/03 01:08:40;;;;;;;61.33;6.03;;;;;;;;;;5073973;28;20225;-67
2023/04/03 01:11:08;;;;;;;60.40;5.80;;;;;;;;;;5074112;28;20688;-68
2023/04/03 01:13:35;;;;;;;61.05;6.00;;;;;;;;;;5074081;28;20201;-67
2023/04/03 01:16:03;;;;;;;59.80;5.63;;;;;;;;;;5074006;28;20581;-67
2023/04/03 01:18:30;;;;;;;60.17;5.65;;;;;;;;;;5073619;28;20601;-68
2023/04/03 01:21:10;;;;;;;59.58;5.30;;;;;;;;;;5073597;28;20391;-68
2023/04/03 01:23:54;;;;;;;60.65;5.95;;;;;;;;;;5073895;28;20296;-67
2023/04/03 01:26:23;;;;;;;60.35;5.95;;;;;;;;;;5073413;28;20728;-67
2023/04/03 01:28:50;;;;;;;61.65;6.07;;;;;;;;;;5071513;28;20735;-67
2023/04/03 01:31:21;;;;;;;65.10;7.45;;;;;;;;;;5073608;28;20201;-68
2023/04/03 01:33:50;;;;;;;60.22;5.75;;;;;;;;;;5073517;28;20209;-65
2023/04/03 01:36:18;;;;;;;61.70;6.22;;;;;;;;;;5073396;28;20201;-67
2023/04/03 01:38:45;;;;;;;60.05;5.70;;;;;;;;;;5072057;28;20231;-66
2023/04/03 01:41:12;;;;;;;62.15;6.13;;;;;;;;;;5073738;28;20205;-66
2023/04/03 01:43:39;;;;;;;59.90;5.70;;;;;;;;;;5073374;28;20209;-65
2023/04/03 01:46:07;;;;;;;61.58;6.03;;;;;;;;;;5073191;28;20231;-67
2023/04/03 01:48:34;;;;;;;60.85;5.57;;;;;;;;;;5072715;28;20779;-67
2023/04/03 01:51:03;;;;;;;61.72;5.78;;;;;;;;;;5073124;28;20211;-69
2023/04/03 01:53:30;;;;;;;60.03;5.55;;;;;;;;;;5073222;28;20205;-68
2023/04/03 01:55:57;;;;;;;60.90;6.22;;;;;;;;;;5072979;28;20207;-67
2023/04/03 01:58:24;;;;;;;60.83;6.53;;;;;;;;;;5072841;28;20221;-68
2023/04/03 02:00:52;;;;;;;62.47;6.45;;;;;;;;;;5072705;28;20209;-65
2023/04/03 02:03:19;;;;;;;61.53;5.80;;;;;;;;;;5072882;28;20211;-66
2023/04/03 02:05:46;;;;;;;61.08;6.25;;;;;;;;;;5072981;28;20280;-66
2023/04/03 02:08:17;;;;;;;60.33;6.03;;;;;;;;;;5072811;28;20255;-67
2023/04/03 02:10:44;;;;;;;61.35;6.20;;;;;;;;;;5072837;28;20204;-66
2023/04/03 02:13:11;;;;;;;61.72;5.82;;;;;;;;;;5072636;28;20212;-66
2023/04/03 02:15:39;;;;;;;60.22;5.53;;;;;;;;;;5072598;28;20205;-66
2023/04/03 02:18:06;;;;;;;60.50;5.93;;;;;;;;;;5072501;28;20217;-66
2023/04/03 02:20:34;;;;;;;61.47;6.35;;;;;;;;;;5072468;28;20208;-66
2023/04/03 02:23:01;;;;;;;60.00;6.00;;;;;;;;;;5072537;28;20205;-66
2023/04/03 02:25:30;;;;;;;60.47;6.00;;;;;;;;;;5072230;28;20235;-68
2023/04/03 02:27:57;;;;;;;61.35;5.70;;;;;;;;;;5072216;28;20646;-66
2023/04/03 02:30:24;;;;;;;59.75;5.70;;;;;;;;;;5072332;28;20205;-66
2023/04/03 02:32:51;;;;;;;60.05;6.35;;;;;;;;;;5072539;28;20291;-66
2023/04/03 02:35:18;;;;;;;60.05;5.57;;;;;;;;;;5072304;28;20209;-65
2023/04/03 02:37:45;;;;;;;61.28;6.15;;;;;;;;;;5072302;28;20220;-66
2023/04/03 02:40:13;;;;;;;60.05;5.82;;;;;;;;;;5071900;28;20296;-67
2023/04/03 02:42:41;;;;;;;60.30;5.82;;;;;;;;;;5072104;28;20205;-66
2023/04/03 02:45:09;;;;;;;62.00;6.32;;;;;;;;;;5072349;28;20209;-66
2023/04/03 02:47:36;;;;;;;61.95;6.22;;;;;;;;;;5072027;28;20228;-66
2023/04/03 02:50:03;;;;;;;62.13;6.55;;;;;;;;;;5071613;28;20201;-67
2023/04/03 02:52:30;;;;;;;61.60;5.80;;;;;;;;;;5072146;28;20205;-65
2023/04/03 02:54:57;;;;;;;61.40;6.30;;;;;;;;;;5072049;28;20211;-66
2023/04/03 02:57:24;;;;;;;61.45;6.28;;;;;;;;;;5071941;28;20221;-66
2023/04/03 02:59:53;;;;;;;61.58;6.25;;;;;;;;;;5071859;28;20610;-66
2023/04/03 03:02:20;;;;;;;64.13;6.70;;;;;;;;;;5072060;28;20216;-66
2023/04/03 03:04:48;;;;;;;59.75;5.75;;;;;;;;;;5072075;28;20300;-66
2023/04/03 03:07:15;;;;;;;62.50;5.85;;;;;;;;;;5071825;28;20612;-66
2023/04/03 03:09:42;;;;;;;61.85;5.70;;;;;;;;;;5071438;28;20212;-66
2023/04/03 03:12:09;;;;;;;60.40;5.72;;;;;;;;;;5071808;28;20209;-66
2023/04/03 03:14:36;;;;;;;62.30;5.75;;;;;;;;;;5071843;28;20219;-66
2023/04/03 03:17:05;;;;;;;62.30;6.03;;;;;;;;;;5071870;28;20203;-67
2023/04/03 03:19:32;;;;;;;61.20;6.35;;;;;;;;;;5071397;28;20209;-67
2023/04/03 03:21:59;;;;;;;60.90;6.60;;;;;;;;;;5071799;28;20211;-66
2023/04/03 03:24:26;;;;;;;62.40;5.95;;;;;;;;;;5071434;28;20711;-67
2023/04/03 03:26:53;;;;;;;60.47;5.60;;;;;;;;;;5071840;28;20231;-66
2023/04/03 03:29:20;;;;;;;64.20;6.35;;;;;;;;;;5071501;28;20201;-66
2023/04/03 03:31:47;;;;;;;61.45;6.15;;;;;;;;;;5071675;28;20748;-66
2023/04/03 03:34:16;;;;;;;60.03;5.90;;;;;;;;;;5071711;28;20201;-66
2023/04/03 03:36:43;;;;;;;62.45;5.22;;;;;;;;;;5071535;28;20197;-66
2023/04/03 03:39:11;;;;;;;59.95;5.85;;;;;;;;;;5071381;28;20235;-67
2023/04/03 03:41:38;;;;;;;60.30;5.55;;;;;;;;;;5071970;28;20208;-65
2023/04/03 03:44:05;;;;;;;60.33;5.20;;;;;;;;;;5071678;28;20215;-66
2023/04/03 03:46:32;;;;;;;60.63;6.07;;;;;;;;;;5071357;28;20728;-66
2023/04/03 03:48:59;;;;;;;61.30;5.32;;;;;;;;;;5071134;28;20224;-66
2023/04/03 03:51:28;;;;;;;64.68;5.53;;;;;;;;;;5071848;28;20201;-66
2023/04/03 03:53:55;;;;;;;60.10;5.63;;;;;;;;;;5071573;28;20259;-66
2023/04/03 03:56:22;;;;;;;61.45;5.78;;;;;;;;;;5071427;28;20205;-66
2023/04/03 03:58:50;;;;;;;59.00;4.90;;;;;;;;;;5071110;28;20227;-65
2023/04/03 04:01:17;;;;;;;60.03;5.13;;;;;;;;;;5071511;28;20201;-67
2023/04/03 04:03:45;;;;;;;61.85;6.40;;;;;;;;;;5075213;28;20292;-66
2023/04/03 04:06:12;;;;;;;59.35;5.35;;;;;;;;;;5075015;28;20722;-66
2023/04/03 04:08:40;;;;;;;61.10;5.30;;;;;;;;;;5074810;28;20225;-67
2023/04/03 04:11:08;;;;;;;60.92;4.80;;;;;;;;;;5075502;28;20212;-66
2023/04/03 04:13:35;;;;;;;61.20;5.50;;;;;;;;;;5074998;28;20214;-67
2023/04/03 04:16:02;;;;;;;59.65;5.60;;;;;;;;;;5075022;28;20201;-66
2023/04/03 04:18:30;;;;;;;60.22;5.43;;;;;;;;;;5074566;28;20254;-68
2023/04/03 04:20:57;;;;;;;60.72;6.07;;;;;;;;;;5074742;28;20665;-66
2023/04/03 04:23:24;;;;;;;59.90;5.53;;;;;;;;;;5074861;28;20205;-66
2023/04/03 04:25:52;;;;;;;60.72;5.03;;;;;;;;;;5074755;28;20216;-65
2023/04/03 04:28:20;;;;;;;59.97;5.53;;;;;;;;;;5074577;28;20235;-67
2023/04/03 04:30:47;;;;;;;62.90;5.72;;;;;;;;;;5074511;28;20205;-66
2023/04/03 04:33:14;;;;;;;61.03;5.60;;;;;;;;;;5074574;28;20212;-67
2023/04/03 04:35:43;;;;;;;60.92;5.47;;;;;;;;;;5074846;28;20263;-65
2023/04/03 04:38:10;;;;;;;59.83;5.50;;;;;;;;;;5074522;28;20227;-66
2023/04/03 04:40:37;;;;;;;60.75;5.55;;;;;;;;;;5074396;28;20564;-66
2023/04/03 04:43:06;;;;;;;60.25;5.70;;;;;;;;;;5074585;28;20205;-65
2023/04/03 04:45:33;;;;;;;59.53;5.65;;;;;;;;;;5074338;28;20232;-66
2023/04/03 04:48:00;;;;;;;59.90;6.15;;;;;;;;;;5074121;28;20315;-66
2023/04/03 04:50:27;;;;;;;62.85;5.80;;;;;;;;;;5073997;28;20681;-65
2023/04/03 04:52:54;;;;;;;59.60;5.85;;;;;;;;;;5074247;28;20684;-66
2023/04/03 04:55:22;;;;;;;60.95;5.90;;;;;;;;;;5074243;28;20205;-65
2023/04/03 04:57:49;;;;;;;60.05;5.15;;;;;;;;;;5074108;28;20225;-66
2023/04/03 05:00:18;;;;;;;61.65;6.05;;;;;;;;;;5073790;28;20233;-66
2023/04/03 05:02:45;;;;;;;62.67;6.68;;;;;;;;;;5074337;28;20205;-66
2023/04/03 05:05:12;;;;;;;61.95;5.63;;;;;;;;;;5074126;28;20209;-65
2023/04/03 05:07:40;;;;;;;60.55;6.05;;;;;;;;;;5073993;28;20235;-66
2023/04/03 05:10:08;;;;;;;60.67;5.25;;;;;;;;;;5073716;28;20212;-66
2023/04/03 05:12:35;;;;;;;59.78;4.97;;;;;;;;;;5073734;28;20292;-66
2023/04/03 05:15:02;;;;;;;60.92;5.65;;;;;;;;;;5073897;28;20209;-66
2023/04/03 05:17:30;;;;;;;60.45;5.43;;;;;;;;;;5074026;28;20618;-65
2023/04/03 05:19:57;;;;;;;62.80;5.45;;;;;;;;;;5073624;28;20201;-66
2023/04/03 05:22:25;;;;;;;63.55;5.82;;;;;;;;;;5073936;28;20668;-66
2023/04/03 05:24:52;;;;;;;61.25;5.70;;;;;;;;;;5073868;28;20217;-66
2023/04/03 05:27:19;;;;;;;61.03;6.10;;;;;;;;;;5073361;28;20237;-65
2023/04/03 05:29:46;;;;;;;59.30;5.57;;;;;;;;;;5073494;28;20581;-66
2023/04/03 05:32:13;;;;;;;59.20;4.72;;;;;;;;;;5073715;28;20216;-67
2023/04/03 05:34:41;;;;;;;60.63;5.45;;;;;;;;;;5073600;28;20596;-66
2023/04/03 05:37:09;;;;;;;60.67;5.57;;;;;;;;;;5073417;28;20197;-66
2023/04/03 05:39:38;;;;;;;61.50;6.18;;;;;;;;;;5073079;28;20227;-66
2023/04/03 05:42:05;;;;;;;61.00;5.32;;;;;;;;;;5073516;28;20280;-66
2023/04/03 05:44:32;;;;;;;60.30;5.63;;;;;;;;;;5073219;28;20216;-66
2023/04/03 05:46:59;;;;;;;59.78;5.70;;;;;;;;;;5073206;28;20232;-66
2023/04/03 05:49:26;;;;;;;60.67;5.35;;;;;;;;;;5072772;28;20300;-66
2023/04/03 05:51:55;;;;;;;60.25;5.85;;;;;;;;;;5073250;28;20205;-67
2023/04/03 05:54:24;;;;;;;60.28;4.95;;;;;;;;;;5072990;28;20756;-66
2023/04/03 05:56:51;;;;;;;59.50;5.40;;;;;;;;;;5073028;28;20197;-66
2023/04/03 05:59:19;;;;;;;60.00;5.72;;;;;;;;;;5072700;28;20225;-66
2023/04/03 06:01:46;;;;;;;60.80;6.22;;;;;;;;;;5073046;28;20201;-67
2023/04/03 06:04:13;;;;;;;62.13;5.43;;;;;;;;;;5072892;28;20209;-66
2023/04/03 06:06:48;;;;;;;60.13;5.47;;;;;;;;;;5072700;28;20221;-67
2023/04/03 06:09:17;;;;;;;59.45;5.40;;;;;;;;;;5072367;28;20224;-66
2023/04/03 06:11:44;;;;;;;61.35;6.30;;;;;;;;;;5072723;28;20712;-67
2023/04/03 06:14:12;;;;;;;60.38;5.30;;;;;;;;;;5072856;28;20300;-66
2023/04/03 06:16:39;;;;;;;60.60;5.18;;;;;;;;;;5072760;28;20197;-66
2023/04/03 06:19:06;;;;;;;61.63;5.00;;;;;;;;;;5072184;28;20229;-66
2023/04/03 06:21:34;;;;;;;59.20;4.45;;;;;;;;;;5072503;28;20213;-66
2023/04/03 06:24:01;;;;;;;59.33;4.88;;;;;;;;;;5072028;28;20267;-66
2023/04/03 06:26:30;;;;;;;60.00;5.28;;;;;;;;;;5072337;28;20303;-66
2023/04/03 06:28:57;;;;;;;59.58;5.28;;;;;;;;;;5072156;28;20224;-66
2023/04/03 06:31:24;;;;;;;59.60;4.70;;;;;;;;;;5072425;28;20208;-66
2023/04/03 06:33:51;;;;;;;60.38;5.15;;;;;;;;;;5072695;28;20295;-65
2023/04/03 06:36:20;;;;;;;61.35;4.90;;;;;;;;;;5072523;28;20216;-68
2023/04/03 06:38:47;;;;;;;59.58;4.85;;;;;;;;;;5071961;28;20270;-66
2023/04/03 06:41:16;;;;;;;59.88;5.38;;;;;;;;;;5072380;28;20223;-66
2023/04/03 06:43:44;;;;;;;60.40;4.88;;;;;;;;;;5072243;28;20244;-66
2023/04/03 06:46:15;;;;;;;61.25;5.30;;;;;;;;;;5072147;28;20211;-67
2023/04/03 06:48:42;;;;;;;61.55;5.30;;;;;;;;;;5071530;28;20767;-66
2023/04/03 06:51:12;;;;;;;60.42;4.85;;;;;;;;;;5072252;28;20207;-66
2023/04/03 06:53:40;;;;;;;59.85;4.60;;;;;;;;;;5072067;28;20201;-66
2023/04/03 06:56:07;;;;;;;60.45;5.40;;;;;;;;;;5072499;28;20296;-66
2023/04/03 06:58:34;;;;;;;61.75;5.20;;;;;;;;;;5072151;28;20247;-66
2023/04/03 07:01:03;;;;;;;61.40;4.85;;;;;;;;;;5071968;28;20204;-66
2023/04/03 07:03:30;;;;;;;60.10;5.33;;;;;;;;;;5072151;28;20201;-66
2023/04/03 07:05:57;;;;;;;60.85;5.20;;;;;;;;;;5072001;28;20443;-66
2023/04/03 07:08:25;;;;;;;61.87;5.80;;;;;;;;;;5071755;28;20244;-68
2023/04/03 07:10:53;;;;;;;60.27;4.90;;;;;;;;;;5071758;28;20512;-68
2023/04/03 07:13:20;;;;;;;61.87;5.90;;;;;;;;;;5071830;28;20453;-70
2023/04/03 07:15:47;;;;;;;60.67;5.00;;;;;;;;;;5071830;28;20981;-68
2023/04/03 07:18:16;;;;;;;62.27;4.73;;;;;;;;;;5071770;28;20460;-70
2023/04/03 07:20:44;;;;;;;60.15;5.10;;;;;;;;;;5071713;28;20508;-68
2023/04/03 07:23:11;;;;;;;59.30;4.50;;;;;;;;;;5071862;28;20205;-68
2023/04/03 07:25:38;;;;;;;60.53;4.90;;;;;;;;;;5071598;28;20463;-69
2023/04/03 07:28:05;;;;;;;60.00;4.78;;;;;;;;;;5071398;28;20947;-68
2023/04/03 07:30:32;;;;;;;60.15;4.35;;;;;;;;;;5071639;28;20205;-69
2023/04/03 07:33:00;;;;;;;60.47;4.70;;;;;;;;;;5071770;28;20207;-68
2023/04/03 07:35:28;;;;;;;61.37;4.70;;;;;;;;;;5071746;28;20534;-68
2023/04/03 07:37:56;;;;;;;60.53;4.60;;;;;;;;;;5074347;28;20478;-68
2023/04/03 07:40:23;;;;;;;60.07;5.60;;;;;;;;;;5075459;28;20796;-69
2023/04/03 07:42:50;;;;;;;59.67;4.73;;;;;;;;;;5075589;28;20535;-68
2023/04/03 07:45:17;;;;;;;60.58;4.43;;;;;;;;;;5075814;28;20496;-68
2023/04/03 07:47:44;;;;;;;61.10;5.40;;;;;;;;;;5075339;28;20712;-68
2023/04/03 07:50:12;;;;;;;59.07;4.40;;;;;;;;;;5075230;28;20450;-68
2023/04/03 07:52:40;;;;;;;62.40;4.90;;;;;;;;;;5075530;28;20551;-69
2023/04/03 07:55:08;;;;;;;61.87;4.90;;;;;;;;;;5075342;28;20447;-68
2023/04/03 07:57:36;;;;;;;58.67;4.43;;;;;;;;;;5075450;28;20483;-69
2023/04/03 08:00:03;;;;;;;59.20;5.10;;;;;;;;;;5075395;28;20459;-68
2023/04/03 08:02:31;;;;;;;60.70;4.47;;;;;;;;;;5075231;28;20457;-68
2023/04/03 08:04:58;;;;;;;60.60;5.03;;;;;;;;;;5075315;28;20454;-68
2023/04/03 08:07:25;;;;;;;59.80;5.10;;;;;;;;;;5074966;28;20483;-69
2023/04/03 08:09:54;;;;;;;60.40;4.47;;;;;;;;;;5074689;28;20502;-68
2023/04/03 08:12:21;;;;;;;61.57;4.90;;;;;;;;;;5075253;28;20451;-67
2023/04/03 08:14:48;;;;;;;63.37;4.80;;;;;;;;;;5074980;28;20454;-66
2023/04/03 08:17:15;;;;;;;60.53;4.80;;;;;;;;;;5074982;28;20471;-66
2023/04/03 08:19:42;;;;;;;59.57;4.70;;;;;;;;;;5074651;28;20451;-66
2023/04/03 08:22:10;;;;;;;61.17;5.20;;;;;;;;;;5074769;28;20453;-67
2023/04/03 08:24:37;;;;;;;62.60;4.77;;;;;;;;;;5074694;28;20459;-66
2023/04/03 08:27:05;;;;;;;59.67;4.60;;;;;;;;;;5074795;28;20443;-67
2023/04/03 08:29:32;;;;;;;58.67;4.40;;;;;;;;;;5074494;28;20532;-66
2023/04/03 08:31:59;;;;;;;59.47;4.10;;;;;;;;;;5075120;28;20443;-66
2023/04/03 08:34:27;;;;;;;62.40;4.60;;;;;;;;;;5074691;28;20793;-66
2023/04/03 08:36:54;;;;;;;60.30;4.87;;;;;;;;;;5074575;28;20455;-66
2023/04/03 08:39:21;;;;;;;58.97;4.33;;;;;;;;;;5074234;28;20944;-66
2023/04/03 08:41:48;;;;;;;63.10;4.63;;;;;;;;;;5074714;28;20439;-66
2023/04/03 08:44:18;;;;;;;58.60;4.50;;;;;;;;;;5074433;28;20955;-65
2023/04/03 08:46:58;;;;;;;62.23;5.00;;;;;;;;;;5074522;28;20450;-66
2023/04/03 08:49:28;;;;;;;60.60;4.60;;;;;;;;;;5073573;28;20832;-67
2023/04/03 08:51:56;;;;;;;59.80;4.80;;;;;;;;;;5074545;28;20451;-66
2023/04/03 08:54:26;;;;;;;59.97;4.17;;;;;;;;;;5074378;28;20448;-66
2023/04/03 08:56:54;;;;;;;59.57;4.73;;;;;;;;;;5074241;28;20447;-66
2023/04/03 08:59:26;;;;;;;60.63;4.60;;;;;;;;;;5073939;28;20488;-66
2023/04/03 09:01:53;;;;;;;58.60;4.70;;;;;;;;;;5073982;28;20546;-67
2023/04/03 09:04:20;;;;;;;59.97;4.00;;;;;;;;;;5074105;28;20455;-66
2023/04/03 09:06:51;;;;;;;61.30;3.80;;;;;;;;;;5074207;28;20455;-66
2023/04/03 09:09:30;;;;;;;58.90;4.20;;;;;;;;;;5073803;28;20483;-66
2023/04/03 09:11:59;;;;;;;58.30;4.20;;;;;;;;;;5074091;28;20549;-66
2023/04/03 09:14:32;;;;;;;60.80;4.40;;;;;;;;;;5073845;28;20443;-66
2023/04/03 09:17:00;;;;;;;62.17;4.20;;;;;;;;;;5074197;28;20447;-66
2023/04/03 09:19:33;;;;;;;60.40;4.30;;;;;;;;;;5073675;28;20459;-66
2023/04/03 09:22:01;;;;;;;58.40;3.50;;;;;;;;;;5073980;28;20939;-66
2023/04/03 09:24:29;;;;;;;58.30;4.03;;;;;;;;;;5073597;28;20459;-66
2023/04/03 09:26:59;;;;;;;58.20;4.00;;;;;;;;;;5073498;28;20455;-67
2023/04/03 09:29:28;;;;;;;58.90;3.50;;;;;;;;;;5073092;28;21015;-66
2023/04/03 09:31:58;;;;;;;59.80;4.10;;;;;;;;;;5073720;28;20452;-66
2023/04/03 09:34:27;;;;;;;60.17;4.20;;;;;;;;;;5073526;28;20534;-66
2023/04/03 09:36:55;;;;;;;60.50;4.70;;;;;;;;;;5073576;28;20524;-66
2023/04/03 09:39:23;;;;;;;59.30;3.83;;;;;;;;;;5073083;28;20542;-66
2023/04/03 09:41:58;;;;;;;59.30;4.20;;;;;;;;;;5073306;28;20517;-66
2023/04/03 09:44:26;;;;;;;58.90;4.40;;;;;;;;;;5073358;28;20444;-66
2023/04/03 09:46:55;;;;;;;60.53;4.80;;;;;;;;;;5073283;28;20453;-66
2023/04/03 09:49:22;;;;;;;61.53;4.57;;;;;;;;;;5073291;28;20493;-67
2023/04/03 09:51:50;;;;;;;60.47;4.90;;;;;;;;;;5073152;28;20458;-66
2023/04/03 09:54:41;;;;;;;60.67;4.20;;;;;;;;;;5073400;28;20820;-66
2023/04/03 09:57:13;;;;;;;60.77;4.17;;;;;;;;;;5057869;28;20459;-66
2023/04/03 09:59:45;;;;;;;57.97;4.30;;;;;;;;;;5071867;28;20876;-66
2023/04/03 10:02:25;;;;;;;62.60;4.40;;;;;;;;;;5072905;28;20451;-65
2023/04/03 10:04:52;;;;;;;58.87;4.07;;;;;;;;;;5073216;28;21050;-65
2023/04/03 10:07:30;;;;;;;61.40;4.93;;;;;;;;;;5072965;28;20467;-66
2023/04/03 10:09:58;;;;;;;59.37;4.47;;;;;;;;;;5072573;28;20444;-66
2023/04/03 10:12:25;;;;;;;59.57;4.60;;;;;;;;;;5072697;28;20439;-67
2023/04/03 10:14:56;;;;;;;58.77;4.27;;;;;;;;;;5072572;28;20439;-66
2023/04/03 10:17:28;;;;;;;59.20;4.53;;;;;;;;;;5072846;28;20463;-67
2023/04/03 10:19:57;;;;;;;59.10;4.27;;;;;;;;;;5072730;28;20447;-66
2023/04/03 10:22:29;;;;;;;60.57;4.83;;;;;;;;;;5072534;28;20963;-66
2023/04/03 10:25:02;;;;;;;59.67;4.13;;;;;;;;;;5072494;28;20921;-66
2023/04/03 10:27:38;;;;;;;58.80;3.93;;;;;;;;;;5072733;28;20558;-66
2023/04/03 10:30:11;;;;;;;62.37;3.93;;;;;;;;;;5072342;28;20549;-66
2023/04/03 10:32:47;;;;;;;58.87;4.40;;;;;;;;;;5072598;28;20447;-66
2023/04/03 10:35:20;;;;;;;61.70;4.27;;;;;;;;;;5072380;28;20474;-65
2023/04/03 10:37:54;;;;;;;57.77;4.30;;;;;;;;;;5072185;28;20466;-66
2023/04/03 10:40:25;;;;;;;58.30;4.40;;;;;;;;;;5072238;28;20845;-66
2023/04/03 10:42:58;;;;;;;59.27;3.43;;;;;;;;;;5072113;28;20512;-66
2023/04/03 10:45:27;;;;;;;61.50;4.13;;;;;;;;;;5072328;28;20651;-66
2023/04/03 10:48:04;;;;;;;59.33;4.00;;;;;;;;;;5071961;28;20475;-66
2023/04/03 10:50:37;;;;;;;59.30;3.90;;;;;;;;;;5072085;28;20545;-66
2023/04/03 10:53:08;;;;;;;59.77;3.50;;;;;;;;;;5072062;28;20970;-66
2023/04/03 10:55:37;;;;;;;58.60;3.70;;;;;;;;;;5072204;28;20454;-66
2023/04/03 10:58:06;;;;;;;59.67;3.90;;;;;;;;;;5071857;28;20479;-66
2023/04/03 11:00:37;;;;;;;58.70;3.73;;;;;;;;;;5071729;28;20478;-66
2023/04/03 11:03:07;;;;;;;59.90;3.63;;;;;;;;;;5072239;28;20746;-67
2023/04/03 11:05:38;;;;;;;58.43;3.50;;;;;;;;;;5072084;28;20451;-66
2023/04/03 11:08:10;;;;;;;57.53;3.67;;;;;;;;;;5071699;28;21018;-66
2023/04/03 11:10:39;;;;;;;58.00;3.50;;;;;;;;;;5071524;28;20542;-65
2023/04/03 11:13:10;;;;;;;59.17;3.90;;;;;;;;;;5072286;28;20447;-67
2023/04/03 11:15:37;;;;;;;58.47;3.93;;;;;;;;;;5072260;28;20451;-66
2023/04/03 11:18:08;;;;;;;62.80;4.33;;;;;;;;;;5071622;28;20991;-68
2023/04/03 11:20:37;;;;;;;61.93;5.00;;;;;;;;;;5071622;28;20461;-66
2023/04/03 11:23:05;;;;;;;59.90;4.10;;;;;;;;;;5071835;28;20439;-67
2023/04/03 11:25:34;;;;;;;59.37;4.30;;;;;;;;;;5071553;28;20477;-66
2023/04/03 11:28:03;;;;;;;60.80;4.23;;;;;;;;;;5071873;28;20503;-66
2023/04/03 11:30:33;;;;;;;58.90;4.10;;;;;;;;;;5071557;28;20481;-65
2023/04/03 11:33:18;;;;;;;58.27;4.00;;;;;;;;;;5071616;28;20451;-65
2023/04/03 11:35:47;;;;;;;60.17;4.17;;;;;;;;;;5071432;28;20835;-67
2023/04/03 11:38:19;;;;;;;58.90;3.63;;;;;;;;;;5071420;28;20471;-65
2023/04/03 11:40:46;;;;;;;58.70;3.50;;;;;;;;;;5071629;28;20451;-66
2023/04/03 11:43:22;;;;;;;60.07;4.20;;;;;;;;;;5071769;28;20451;-66
2023/04/03 11:45:54;;;;;;;61.60;4.27;;;;;;;;;;5071632;28;20451;-67
2023/04/03 11:48:40;;;;;;;58.20;4.10;;;;;;;;;;5071323;28;20494;-66
2023/04/03 11:51:22;;;;;;;58.90;4.07;;;;;;;;;;5071495;28;20483;-66
2023/04/03 11:53:50;;;;;;;58.10;4.00;;;;;;;;;;5071253;28;20443;-67
2023/04/03 11:56:31;;;;;;;58.47;4.00;;;;;;;;;;5071405;28;20962;-66
2023/04/03 11:59:19;;;;;;;58.37;3.70;;;;;;;;;;5070807;28;20542;-66
2023/04/03 12:01:46;;;;;;;59.07;3.90;;;;;;;;;;5071479;28;20447;-66
2023/04/03 12:04:15;;;;;;;59.43;3.77;;;;;;;;;;5071253;28;20955;-67
2023/04/03 12:06:57;;;;;;;59.40;3.70;;;;;;;;;;5071415;28;20828;-66
2023/04/03 12:09:28;;;;;;;60.10;4.27;;;;;;;;;;5070786;28;21029;-67
2023/04/03 12:11:56;;;;;;;59.50;3.93;;;;;;;;;;5071541;28;20451;-67
2023/04/03 12:14:25;;;;;;;57.90;3.30;;;;;;;;;;5071269;28;20932;-67
2023/04/03 12:16:53;;;;;;;59.37;3.53;;;;;;;;;;5071217;28;20490;-68
2023/04/03 12:19:30;;;;;;;58.70;3.13;;;;;;;;;;5070884;28;20471;-67
2023/04/03 12:22:08;;;;;;;59.80;3.70;;;;;;;;;;5071140;28;20951;-67
2023/04/03 12:24:39;;;;;;;61.00;4.27;;;;;;;;;;5074886;28;20466;-67
2023/04/03 12:27:24;;;;;;;59.50;3.70;;;;;;;;;;5074750;28;20491;-67
2023/04/03 12:29:54;;;;;;;57.80;3.50;;;;;;;;;;5074446;28;20489;-67
2023/04/03 12:32:26;;;;;;;58.70;3.83;;;;;;;;;;5074703;28;20447;-67
2023/04/03 12:35:08;;;;;;;58.20;3.67;;;;;;;;;;5074915;28;20447;-67
2023/04/03 12:37:58;;;;;;;60.87;4.20;;;;;;;;;;5072393;28;20483;-68
2023/04/03 12:40:29;;;;;;;58.70;3.93;;;;;;;;;;5074341;28;20448;-68
2023/04/03 12:43:08;;;;;;;59.70;3.80;;;;;;;;;;5074536;28;20443;-67
2023/04/03 12:45:41;;;;;;;60.10;3.87;;;;;;;;;;5074444;28;20538;-68
2023/04/03 12:48:13;;;;;;;58.90;3.77;;;;;;;;;;5074428;28;20467;-67
2023/04/03 12:50:43;;;;;;;60.90;4.07;;;;;;;;;;5074206;28;20493;-68
2023/04/03 12:53:14;;;;;;;60.17;3.33;;;;;;;;;;5074400;28;20858;-67
2023/04/03 12:55:42;;;;;;;60.77;3.77;;;;;;;;;;5074507;28;20457;-68
2023/04/03 12:58:17;;;;;;;58.63;3.67;;;;;;;;;;5074281;28;20843;-67
2023/04/03 13:00:44;;;;;;;58.87;3.33;;;;;;;;;;5074094;28;20500;-67
2023/04/03 13:03:23;;;;;;;58.30;3.63;;;;;;;;;;5074113;28;20944;-68
2023/04/03 13:05:50;;;;;;;58.60;3.47;;;;;;;;;;5074365;28;20451;-67
2023/04/03 13:08:19;;;;;;;66.37;3.60;;;;;;;;;;5073906;28;21009;-67
2023/04/03 13:10:51;;;;;;;58.57;3.70;;;;;;;;;;5073672;28;21069;-67
2023/04/03 13:13:18;;;;;;;59.37;3.57;;;;;;;;;;5074085;28;20456;-67
2023/04/03 13:15:48;;;;;;;59.63;3.80;;;;;;;;;;5073917;28;20971;-67
2023/04/03 13:18:25;;;;;;;59.17;3.87;;;;;;;;;;5073662;28;20475;-69
2023/04/03 13:20:53;;;;;;;60.70;3.60;;;;;;;;;;5073895;28;20439;-67
2023/04/03 13:23:22;;;;;;;58.63;3.80;;;;;;;;;;5073768;28;20450;-67
2023/04/03 13:25:51;;;;;;;59.00;3.47;;;;;;;;;;5073932;28;20451;-67
2023/04/03 13:28:20;;;;;;;58.67;3.40;;;;;;;;;;5073584;28;20467;-67
2023/04/03 13:30:56;;;;;;;59.17;3.87;;;;;;;;;;5073605;28;20570;-66
2023/04/03 13:33:25;;;;;;;58.20;3.60;;;;;;;;;;5073736;28;20461;-66
2023/04/03 13:35:56;;;;;;;58.20;3.47;;;;;;;;;;5073673;28;20451;-67
2023/04/03 13:38:25;;;;;;;61.37;4.13;;;;;;;;;;5073373;28;20471;-67
2023/04/03 13:40:55;;;;;;;59.40;4.07;;;;;;;;;;5073129;28;20458;-67
2023/04/03 13:43:24;;;;;;;60.67;4.43;;;;;;;;;;5073438;28;20948;-68
2023/04/03 13:45:56;;;;;;;60.60;3.97;;;;;;;;;;5073535;28;20525;-66
2023/04/03 13:48:24;;;;;;;60.27;3.93;;;;;;;;;;5073267;28;20871;-67
2023/04/03 13:50:53;;;;;;;62.87;4.13;;;;;;;;;;5073082;28;20493;-67
2023/04/03 13:53:20;;;;;;;59.63;3.60;;;;;;;;;;5073123;28;20474;-67
2023/04/03 13:55:59;;;;;;;58.87;3.90;;;;;;;;;;5073019;28;21012;-67
2023/04/03 13:58:27;;;;;;;59.00;4.00;;;;;;;;;;5072941;28;20475;-69
2023/04/03 14:00:55;;;;;;;58.70;3.67;;;;;;;;;;5073052;28;20451;-67
2023/04/03 14:03:22;;;;;;;59.13;4.20;;;;;;;;;;5073111;28;20819;-67
2023/04/03 14:05:50;;;;;;;59.47;3.93;;;;;;;;;;5072954;28;20451;-66
2023/04/03 14:08:17;;;;;;;57.97;3.33;;;;;;;;;;5072662;28;20464;-67
2023/04/03 14:10:44;;;;;;;59.87;3.77;;;;;;;;;;5072758;28;21033;-67
2023/04/03 14:13:15;;;;;;;60.93;4.00;;;;;;;;;;5072962;28;20454;-67
2023/04/03 14:15:42;;;;;;;57.90;3.60;;;;;;;;;;5072886;28;20455;-67
2023/04/03 14:18:11;;;;;;;60.60;4.13;;;;;;;;;;5072642;28;20983;-67
2023/04/03 14:20:38;;;;;;;58.77;3.93;;;;;;;;;;5072303;28;20447;-67
2023/04/03 14:23:06;;;;;;;58.53;3.73;;;;;;;;;;5072619;28;20448;-68
2023/04/03 14:25:33;;;;;;;60.30;4.50;;;;;;;;;;5072814;28;20553;-67
2023/04/03 14:28:01;;;;;;;59.87;3.27;;;;;;;;;;5072510;28;20467;-67
2023/04/03 14:30:31;;;;;;;60.37;3.97;;;;;;;;;;5072184;28;20479;-67
2023/04/03 14:33:00;;;;;;;58.30;3.70;;;;;;;;;;5072464;28;20478;-67
2023/04/03 14:35:28;;;;;;;61.37;4.40;;;;;;;;;;5072576;28;20513;-67
2023/04/03 14:37:57;;;;;;;59.27;3.70;;;;;;;;;;5072411;28;20478;-67
2023/04/03 14:40:25;;;;;;;59.40;3.47;;;;;;;;;;5072171;28;20801;-67
2023/04/03 14:42:54;;;;;;;59.10;3.50;;;;;;;;;;5072209;28;20451;-67